sensor_id;sensor_type;location;lat;lon;timestamp;temperature;humidity
6964;DHT22;3522;50.856;7.278;2023-04-29T00:00:59;12.00;99.90
6964;DHT22;3522;50.856;7.278;2023-04-29T00:03:27;12.00;99.90
6964;DHT22;3522;50.856;7.278;2023-04-29T00:05:56;11.90;99.90
6964;DHT22;3522;50.856;7.278;2023-04-29T00:08:23;11.90;99.90
6964;DHT22;3522;50.856;7.278;2023-04-29T00:10:50;11.90;99.90
6964;DHT22;3522;50.856;7.278;2023-04-29T00:13:16;11.80;99.90
6964;DHT22;3522;50.856;7.278;2023-04-29T00:15:43;11.80;99.90
6964;DHT22;3522;50.856;7.278;2023-04-29T00:18:09;11.80;99.90
6964;DHT22;3522;50.856;7.278;2023-04-29T00:20:37;11.80;99.90
6964;DHT22;3522;50.856;7.278;2023-04-29T00:23:04;11.80;99.90
6964;DHT22;3522;50.856;7.278;2023-04-29T00:25:31;11.70;99.90
6964;DHT22;3522;50.856;7.278;2023-04-29T00:27:58;11.60;99.90
6964;DHT22;3522;50.856;7.278;2023-04-29T00:30:26;11.60;99.90
6964;DHT22;3522;50.856;7.278;2023-04-29T00:32:53;11.50;99.90
6964;DHT22;3522;50.856;7.278;2023-04-29T00:35:19;11.50;99.90
6964;DHT22;3522;50.856;7.278;2023-04-29T00:37:47;11.50;99.90
6964;DHT22;3522;50.856;7.278;2023-04-29T00:40:14;11.40;99.90
6964;DHT22;3522;50.856;7.278;2023-04-29T00:42:41;11.40;99.90
6964;DHT22;3522;50.856;7.278;2023-04-29T00:45:08;11.40;99.90
6964;DHT22;3522;50.856;7.278;2023-04-29T00:47:35;11.30;99.90
6964;DHT22;3522;50.856;7.278;2023-04-29T00:50:02;11.30;99.90
6964;DHT22;3522;50.856;7.278;2023-04-29T00:52:29;11.30;99.90
6964;DHT22;3522;50.856;7.278;2023-04-29T00:54:58;11.30;99.90
6964;DHT22;3522;50.856;7.278;2023-04-29T00:57:25;11.30;99.90
6964;DHT22;3522;50.856;7.278;2023-04-29T00:59:53;11.30;99.90
6964;DHT22;3522;50.856;7.278;2023-04-29T01:02:20;11.30;99.90
6964;DHT22;3522;50.856;7.278;2023-04-29T01:04:47;11.30;99.90
6964;DHT22;3522;50.856;7.278;2023-04-29T01:07:14;11.30;99.90
6964;DHT22;3522;50.856;7.278;2023-04-29T01:09:52;11.20;99.90
6964;DHT22;3522;50.856;7.278;2023-04-29T01:12:28;11.20;99.90
6964;DHT22;3522;50.856;7.278;2023-04-29T01:15:01;11.30;99.90
6964;DHT22;3522;50.856;7.278;2023-04-29T01:17:30;11.20;99.90
6964;DHT22;3522;50.856;7.278;2023-04-29T01:19:57;11.20;99.90
6964;DHT22;3522;50.856;7.278;2023-04-29T01:22:24;11.20;99.90
6964;DHT22;3522;50.856;7.278;2023-04-29T01:24:52;11.20;99.90
6964;DHT22;3522;50.856;7.278;2023-04-29T01:27:22;11.20;99.90
6964;DHT22;3522;50.856;7.278;2023-04-29T01:29:55;11.20;99.90
6964;DHT22;3522;50.856;7.278;2023-04-29T01:32:25;11.20;99.90
6964;DHT22;3522;50.856;7.278;2023-04-29T01:34:58;11.20;99.90
6964;DHT22;3522;50.856;7.278;2023-04-29T01:37:27;11.20;99.90
6964;DHT22;3522;50.856;7.278;2023-04-29T01:39:56;11.20;99.90
6964;DHT22;3522;50.856;7.278;2023-04-29T01:42:27;11.20;99.90
6964;DHT22;3522;50.856;7.278;2023-04-29T01:44:55;11.20;99.90
6964;DHT22;3522;50.856;7.278;2023-04-29T01:47:22;11.20;99.90
6964;DHT22;3522;50.856;7.278;2023-04-29T01:49:49;11.20;99.90
6964;DHT22;3522;50.856;7.278;2023-04-29T01:52:16;11.10;99.90
6964;DHT22;3522;50.856;7.278;2023-04-29T01:54:43;11.10;99.90
6964;DHT22;3522;50.856;7.278;2023-04-29T01:57:11;11.10;99.90
6964;DHT22;3522;50.856;7.278;2023-04-29T01:59:38;11.00;99.90
6964;DHT22;3522;50.856;7.278;2023-04-29T02:02:04;11.10;99.90
6964;DHT22;3522;50.856;7.278;2023-04-29T02:04:31;11.00;99.90
6964;DHT22;3522;50.856;7.278;2023-04-29T02:06:58;11.00;99.90
6964;DHT22;3522;50.856;7.278;2023-04-29T02:09:25;11.10;99.90
6964;DHT22;3522;50.856;7.278;2023-04-29T02:11:52;11.10;99.90
6964;DHT22;3522;50.856;7.278;2023-04-29T02:14:20;11.00;99.90
6964;DHT22;3522;50.856;7.278;2023-04-29T02:16:47;11.00;99.90
6964;DHT22;3522;50.856;7.278;2023-04-29T02:19:13;11.00;99.90
6964;DHT22;3522;50.856;7.278;2023-04-29T02:21:40;11.00;99.90
6964;DHT22;3522;50.856;7.278;2023-04-29T02:24:07;11.00;99.90
6964;DHT22;3522;50.856;7.278;2023-04-29T02:26:33;11.00;99.90
6964;DHT22;3522;50.856;7.278;2023-04-29T02:29:02;11.00;99.90
6964;DHT22;3522;50.856;7.278;2023-04-29T02:31:30;11.00;99.90
6964;DHT22;3522;50.856;7.278;2023-04-29T02:33:57;10.90;99.90
6964;DHT22;3522;50.856;7.278;2023-04-29T02:36:24;10.90;99.90
6964;DHT22;3522;50.856;7.278;2023-04-29T02:38:51;10.90;99.90
6964;DHT22;3522;50.856;7.278;2023-04-29T02:41:19;10.90;99.90
6964;DHT22;3522;50.856;7.278;2023-04-29T02:43:46;10.90;99.90
6964;DHT22;3522;50.856;7.278;2023-04-29T02:46:13;10.80;99.90
6964;DHT22;3522;50.856;7.278;2023-04-29T02:48:41;10.80;99.90
6964;DHT22;3522;50.856;7.278;2023-04-29T02:51:07;10.80;99.90
6964;DHT22;3522;50.856;7.278;2023-04-29T02:53:34;10.80;99.90
6964;DHT22;3522;50.856;7.278;2023-04-29T02:56:01;10.80;99.90
6964;DHT22;3522;50.856;7.278;2023-04-29T02:58:28;10.80;99.90
6964;DHT22;3522;50.856;7.278;2023-04-29T03:00:54;10.70;99.90
6964;DHT22;3522;50.856;7.278;2023-04-29T03:03:21;10.70;99.90
6964;DHT22;3522;50.856;7.278;2023-04-29T03:05:49;10.70;99.90
6964;DHT22;3522;50.856;7.278;2023-04-29T03:08:16;10.70;99.90
6964;DHT22;3522;50.856;7.278;2023-04-29T03:10:43;10.60;99.90
6964;DHT22;3522;50.856;7.278;2023-04-29T03:13:10;10.60;99.90
6964;DHT22;3522;50.856;7.278;2023-04-29T03:15:37;10.50;99.90
6964;DHT22;3522;50.856;7.278;2023-04-29T03:18:03;10.50;99.90
6964;DHT22;3522;50.856;7.278;2023-04-29T03:20:30;10.50;99.90
6964;DHT22;3522;50.856;7.278;2023-04-29T03:22:58;10.50;99.90
6964;DHT22;3522;50.856;7.278;2023-04-29T03:25:25;10.40;99.90
6964;DHT22;3522;50.856;7.278;2023-04-29T03:27:52;10.40;99.90
6964;DHT22;3522;50.856;7.278;2023-04-29T03:30:19;10.40;99.90
6964;DHT22;3522;50.856;7.278;2023-04-29T03:32:46;10.30;99.90
6964;DHT22;3522;50.856;7.278;2023-04-29T03:35:12;10.30;99.90
6964;DHT22;3522;50.856;7.278;2023-04-29T03:37:39;10.20;99.90
6964;DHT22;3522;50.856;7.278;2023-04-29T03:40:10;10.20;99.90
6964;DHT22;3522;50.856;7.278;2023-04-29T03:42:37;10.20;99.90
6964;DHT22;3522;50.856;7.278;2023-04-29T03:45:04;10.20;99.90
6964;DHT22;3522;50.856;7.278;2023-04-29T03:47:31;10.20;99.90
6964;DHT22;3522;50.856;7.278;2023-04-29T03:49:57;10.20;99.90
6964;DHT22;3522;50.856;7.278;2023-04-29T03:52:24;10.20;99.90
6964;DHT22;3522;50.856;7.278;2023-04-29T03:54:50;10.10;99.90
6964;DHT22;3522;50.856;7.278;2023-04-29T03:57:18;10.10;99.90
6964;DHT22;3522;50.856;7.278;2023-04-29T03:59:45;10.10;99.90
6964;DHT22;3522;50.856;7.278;2023-04-29T04:02:14;10.10;99.90
6964;DHT22;3522;50.856;7.278;2023-04-29T04:04:41;10.10;99.90
6964;DHT22;3522;50.856;7.278;2023-04-29T04:07:07;10.10;99.90
6964;DHT22;3522;50.856;7.278;2023-04-29T04:09:34;10.10;99.90
6964;DHT22;3522;50.856;7.278;2023-04-29T04:12:00;10.00;99.90
6964;DHT22;3522;50.856;7.278;2023-04-29T04:14:28;10.00;99.90
6964;DHT22;3522;50.856;7.278;2023-04-29T04:16:55;10.00;99.90
6964;DHT22;3522;50.856;7.278;2023-04-29T04:19:22;10.00;99.90
6964;DHT22;3522;50.856;7.278;2023-04-29T04:21:49;10.00;99.90
6964;DHT22;3522;50.856;7.278;2023-04-29T04:24:15;9.90;99.90
6964;DHT22;3522;50.856;7.278;2023-04-29T04:26:42;9.90;99.90
6964;DHT22;3522;50.856;7.278;2023-04-29T04:29:08;9.80;99.90
6964;DHT22;3522;50.856;7.278;2023-04-29T04:31:36;9.80;99.90
6964;DHT22;3522;50.856;7.278;2023-04-29T04:34:03;9.70;99.90
6964;DHT22;3522;50.856;7.278;2023-04-29T04:36:29;9.60;99.90
6964;DHT22;3522;50.856;7.278;2023-04-29T04:38:57;9.60;99.90
6964;DHT22;3522;50.856;7.278;2023-04-29T04:41:23;9.50;99.90
6964;DHT22;3522;50.856;7.278;2023-04-29T04:43:50;9.50;99.90
6964;DHT22;3522;50.856;7.278;2023-04-29T04:46:16;9.50;99.90
6964;DHT22;3522;50.856;7.278;2023-04-29T04:48:44;9.40;99.90
6964;DHT22;3522;50.856;7.278;2023-04-29T04:51:11;9.40;99.90
6964;DHT22;3522;50.856;7.278;2023-04-29T04:53:38;9.40;99.90
6964;DHT22;3522;50.856;7.278;2023-04-29T04:56:05;9.40;99.90
6964;DHT22;3522;50.856;7.278;2023-04-29T04:58:32;9.40;99.90
6964;DHT22;3522;50.856;7.278;2023-04-29T05:00:59;9.40;99.90
6964;DHT22;3522;50.856;7.278;2023-04-29T05:03:26;9.40;99.90
6964;DHT22;3522;50.856;7.278;2023-04-29T05:05:54;9.40;99.90
6964;DHT22;3522;50.856;7.278;2023-04-29T05:08:21;9.30;99.90
6964;DHT22;3522;50.856;7.278;2023-04-29T05:10:47;9.30;99.90
6964;DHT22;3522;50.856;7.278;2023-04-29T05:13:14;9.30;99.90
6964;DHT22;3522;50.856;7.278;2023-04-29T05:15:40;9.30;99.90
6964;DHT22;3522;50.856;7.278;2023-04-29T05:18:07;9.30;99.90
6964;DHT22;3522;50.856;7.278;2023-04-29T05:20:34;9.30;99.90
6964;DHT22;3522;50.856;7.278;2023-04-29T05:23:01;9.30;99.90
6964;DHT22;3522;50.856;7.278;2023-04-29T05:25:28;9.30;99.90
6964;DHT22;3522;50.856;7.278;2023-04-29T05:27:55;9.30;99.90
6964;DHT22;3522;50.856;7.278;2023-04-29T05:30:21;9.30;99.90
6964;DHT22;3522;50.856;7.278;2023-04-29T05:32:48;9.30;99.90
6964;DHT22;3522;50.856;7.278;2023-04-29T05:35:15;9.40;99.90
6964;DHT22;3522;50.856;7.278;2023-04-29T05:37:41;9.40;99.90
6964;DHT22;3522;50.856;7.278;2023-04-29T05:40:10;9.40;99.90
6964;DHT22;3522;50.856;7.278;2023-04-29T05:42:36;9.40;99.90
6964;DHT22;3522;50.856;7.278;2023-04-29T05:45:03;9.40;99.90
6964;DHT22;3522;50.856;7.278;2023-04-29T05:47:30;9.40;99.90
6964;DHT22;3522;50.856;7.278;2023-04-29T05:49:57;9.40;99.90
6964;DHT22;3522;50.856;7.278;2023-04-29T05:52:23;9.40;99.90
6964;DHT22;3522;50.856;7.278;2023-04-29T05:54:50;9.40;99.90
6964;DHT22;3522;50.856;7.278;2023-04-29T05:57:18;9.40;99.90
6964;DHT22;3522;50.856;7.278;2023-04-29T05:59:44;9.40;99.90
6964;DHT22;3522;50.856;7.278;2023-04-29T06:02:11;9.40;99.90
6964;DHT22;3522;50.856;7.278;2023-04-29T06:04:38;9.50;99.90
6964;DHT22;3522;50.856;7.278;2023-04-29T06:07:06;9.50;99.90
6964;DHT22;3522;50.856;7.278;2023-04-29T06:09:33;9.50;99.90
6964;DHT22;3522;50.856;7.278;2023-04-29T06:12:00;9.50;99.90
6964;DHT22;3522;50.856;7.278;2023-04-29T06:14:28;9.50;99.90
6964;DHT22;3522;50.856;7.278;2023-04-29T06:16:55;9.50;99.90
6964;DHT22;3522;50.856;7.278;2023-04-29T06:19:21;9.50;99.90
6964;DHT22;3522;50.856;7.278;2023-04-29T06:21:49;9.50;99.90
6964;DHT22;3522;50.856;7.278;2023-04-29T06:24:15;9.50;99.90
6964;DHT22;3522;50.856;7.278;2023-04-29T06:26:42;9.50;99.90
6964;DHT22;3522;50.856;7.278;2023-04-29T06:29:09;9.50;99.90
6964;DHT22;3522;50.856;7.278;2023-04-29T06:31:37;9.50;99.90
6964;DHT22;3522;50.856;7.278;2023-04-29T06:34:03;9.50;99.90
6964;DHT22;3522;50.856;7.278;2023-04-29T06:36:30;9.50;99.90
6964;DHT22;3522;50.856;7.278;2023-04-29T06:38:56;9.50;99.90
6964;DHT22;3522;50.856;7.278;2023-04-29T06:41:23;9.50;99.90
6964;DHT22;3522;50.856;7.278;2023-04-29T06:43:51;9.50;99.90
6964;DHT22;3522;50.856;7.278;2023-04-29T06:46:17;9.50;99.90
6964;DHT22;3522;50.856;7.278;2023-04-29T06:48:45;9.50;99.90
6964;DHT22;3522;50.856;7.278;2023-04-29T06:51:12;9.50;99.90
6964;DHT22;3522;50.856;7.278;2023-04-29T06:53:39;9.50;99.90
6964;DHT22;3522;50.856;7.278;2023-04-29T06:56:06;9.50;99.90
6964;DHT22;3522;50.856;7.278;2023-04-29T06:58:32;9.50;99.90
6964;DHT22;3522;50.856;7.278;2023-04-29T07:00:59;9.50;99.90
6964;DHT22;3522;50.856;7.278;2023-04-29T07:03:27;9.60;99.90
6964;DHT22;3522;50.856;7.278;2023-04-29T07:05:55;9.60;99.90
6964;DHT22;3522;50.856;7.278;2023-04-29T07:08:22;9.50;99.90
6964;DHT22;3522;50.856;7.278;2023-04-29T07:10:52;9.50;99.90
6964;DHT22;3522;50.856;7.278;2023-04-29T07:13:19;9.50;99.90
6964;DHT22;3522;50.856;7.278;2023-04-29T07:15:45;9.50;99.90
6964;DHT22;3522;50.856;7.278;2023-04-29T07:18:12;9.60;99.90
6964;DHT22;3522;50.856;7.278;2023-04-29T07:20:38;9.60;99.90
6964;DHT22;3522;50.856;7.278;2023-04-29T07:23:06;9.60;99.90
6964;DHT22;3522;50.856;7.278;2023-04-29T07:25:33;9.60;99.90
6964;DHT22;3522;50.856;7.278;2023-04-29T07:28:00;9.70;99.90
6964;DHT22;3522;50.856;7.278;2023-04-29T07:30:26;9.70;99.90
6964;DHT22;3522;50.856;7.278;2023-04-29T07:32:53;9.70;99.90
6964;DHT22;3522;50.856;7.278;2023-04-29T07:35:19;9.70;99.90
6964;DHT22;3522;50.856;7.278;2023-04-29T07:37:46;9.70;99.90
6964;DHT22;3522;50.856;7.278;2023-04-29T07:40:14;9.70;99.90
6964;DHT22;3522;50.856;7.278;2023-04-29T07:42:42;9.80;99.90
6964;DHT22;3522;50.856;7.278;2023-04-29T07:45:09;9.80;99.90
6964;DHT22;3522;50.856;7.278;2023-04-29T07:47:35;9.80;99.90
6964;DHT22;3522;50.856;7.278;2023-04-29T07:50:02;9.90;99.90
6964;DHT22;3522;50.856;7.278;2023-04-29T07:52:29;9.90;99.90
6964;DHT22;3522;50.856;7.278;2023-04-29T07:54:56;10.00;99.90
6964;DHT22;3522;50.856;7.278;2023-04-29T07:57:24;10.00;99.90
6964;DHT22;3522;50.856;7.278;2023-04-29T07:59:51;10.00;99.90
6964;DHT22;3522;50.856;7.278;2023-04-29T08:02:18;10.10;99.90
6964;DHT22;3522;50.856;7.278;2023-04-29T08:04:44;10.00;99.90
6964;DHT22;3522;50.856;7.278;2023-04-29T08:07:11;10.10;99.90
6964;DHT22;3522;50.856;7.278;2023-04-29T08:09:38;10.20;99.90
6964;DHT22;3522;50.856;7.278;2023-04-29T08:12:05;10.20;99.90
6964;DHT22;3522;50.856;7.278;2023-04-29T08:14:33;10.20;99.90
6964;DHT22;3522;50.856;7.278;2023-04-29T08:16:59;10.20;99.90
6964;DHT22;3522;50.856;7.278;2023-04-29T08:19:26;10.10;99.90
6964;DHT22;3522;50.856;7.278;2023-04-29T08:21:52;10.10;99.90
6964;DHT22;3522;50.856;7.278;2023-04-29T08:24:19;10.00;99.90
6964;DHT22;3522;50.856;7.278;2023-04-29T08:26:46;9.90;99.90
6964;DHT22;3522;50.856;7.278;2023-04-29T08:29:13;9.90;99.90
6964;DHT22;3522;50.856;7.278;2023-04-29T08:31:41;10.00;99.90
6964;DHT22;3522;50.856;7.278;2023-04-29T08:34:08;10.00;99.90
6964;DHT22;3522;50.856;7.278;2023-04-29T08:36:34;10.10;99.90
6964;DHT22;3522;50.856;7.278;2023-04-29T08:39:03;10.20;99.90
6964;DHT22;3522;50.856;7.278;2023-04-29T08:41:30;10.40;99.90
6964;DHT22;3522;50.856;7.278;2023-04-29T08:43:57;10.50;99.90
6964;DHT22;3522;50.856;7.278;2023-04-29T08:46:24;10.70;99.90
6964;DHT22;3522;50.856;7.278;2023-04-29T08:48:52;10.80;99.90
6964;DHT22;3522;50.856;7.278;2023-04-29T08:51:20;11.00;99.90
6964;DHT22;3522;50.856;7.278;2023-04-29T08:53:47;11.20;99.90
6964;DHT22;3522;50.856;7.278;2023-04-29T08:56:15;11.50;99.90
6964;DHT22;3522;50.856;7.278;2023-04-29T08:58:42;11.70;99.90
6964;DHT22;3522;50.856;7.278;2023-04-29T09:01:09;12.00;99.90
6964;DHT22;3522;50.856;7.278;2023-04-29T09:03:39;12.00;99.90
6964;DHT22;3522;50.856;7.278;2023-04-29T09:06:09;12.20;99.90
6964;DHT22;3522;50.856;7.278;2023-04-29T09:08:36;12.30;99.90
6964;DHT22;3522;50.856;7.278;2023-04-29T09:11:03;12.50;99.90
6964;DHT22;3522;50.856;7.278;2023-04-29T09:13:30;12.80;99.90
6964;DHT22;3522;50.856;7.278;2023-04-29T09:15:57;13.10;99.90
6964;DHT22;3522;50.856;7.278;2023-04-29T09:18:43;13.40;99.90
6964;DHT22;3522;50.856;7.278;2023-04-29T09:21:15;13.70;99.90
6964;DHT22;3522;50.856;7.278;2023-04-29T09:23:41;13.70;99.90
6964;DHT22;3522;50.856;7.278;2023-04-29T09:26:08;13.40;99.90
6964;DHT22;3522;50.856;7.278;2023-04-29T09:28:35;13.30;99.90
6964;DHT22;3522;50.856;7.278;2023-04-29T09:31:01;13.40;99.90
6964;DHT22;3522;50.856;7.278;2023-04-29T09:33:30;13.40;99.90
6964;DHT22;3522;50.856;7.278;2023-04-29T09:35:57;13.30;99.90
6964;DHT22;3522;50.856;7.278;2023-04-29T09:38:26;12.90;99.90
6964;DHT22;3522;50.856;7.278;2023-04-29T09:40:53;12.60;99.90
6964;DHT22;3522;50.856;7.278;2023-04-29T09:43:20;12.30;99.90
6964;DHT22;3522;50.856;7.278;2023-04-29T09:45:48;12.10;99.90
6964;DHT22;3522;50.856;7.278;2023-04-29T09:48:14;11.80;99.90
6964;DHT22;3522;50.856;7.278;2023-04-29T09:50:42;11.60;99.90
6964;DHT22;3522;50.856;7.278;2023-04-29T09:53:10;11.40;99.90
6964;DHT22;3522;50.856;7.278;2023-04-29T09:55:56;11.20;99.90
6964;DHT22;3522;50.856;7.278;2023-04-29T09:58:26;11.10;99.90
6964;DHT22;3522;50.856;7.278;2023-04-29T10:00:53;11.00;99.90
6964;DHT22;3522;50.856;7.278;2023-04-29T10:03:19;10.90;99.90
6964;DHT22;3522;50.856;7.278;2023-04-29T10:05:46;10.80;99.90
6964;DHT22;3522;50.856;7.278;2023-04-29T10:08:14;10.70;99.90
6964;DHT22;3522;50.856;7.278;2023-04-29T10:10:42;10.70;99.90
6964;DHT22;3522;50.856;7.278;2023-04-29T10:13:10;10.70;99.90
6964;DHT22;3522;50.856;7.278;2023-04-29T10:15:38;10.70;99.90
6964;DHT22;3522;50.856;7.278;2023-04-29T10:18:11;10.70;99.90
6964;DHT22;3522;50.856;7.278;2023-04-29T10:20:40;10.70;99.90
6964;DHT22;3522;50.856;7.278;2023-04-29T10:23:09;10.70;99.90
6964;DHT22;3522;50.856;7.278;2023-04-29T10:25:36;10.70;99.90
6964;DHT22;3522;50.856;7.278;2023-04-29T10:28:04;10.70;99.90
6964;DHT22;3522;50.856;7.278;2023-04-29T10:30:32;10.70;99.90
6964;DHT22;3522;50.856;7.278;2023-04-29T10:32:59;10.70;99.90
6964;DHT22;3522;50.856;7.278;2023-04-29T10:35:27;10.70;99.90
6964;DHT22;3522;50.856;7.278;2023-04-29T10:37:54;10.70;99.90
6964;DHT22;3522;50.856;7.278;2023-04-29T10:40:21;10.70;99.90
6964;DHT22;3522;50.856;7.278;2023-04-29T10:42:50;10.70;99.90
6964;DHT22;3522;50.856;7.278;2023-04-29T10:45:20;10.70;99.90
6964;DHT22;3522;50.856;7.278;2023-04-29T10:48:13;10.70;99.90
6964;DHT22;3522;50.856;7.278;2023-04-29T10:53:22;10.60;99.90
6964;DHT22;3522;50.856;7.278;2023-04-29T10:55:52;10.60;99.90
6964;DHT22;3522;50.856;7.278;2023-04-29T10:58:32;10.70;99.90
6964;DHT22;3522;50.856;7.278;2023-04-29T11:01:00;10.70;99.90
6964;DHT22;3522;50.856;7.278;2023-04-29T11:06:37;11.00;99.90
6964;DHT22;3522;50.856;7.278;2023-04-29T11:09:06;11.00;99.90
6964;DHT22;3522;50.856;7.278;2023-04-29T11:11:40;11.00;99.90
6964;DHT22;3522;50.856;7.278;2023-04-29T11:14:07;11.10;99.90
6964;DHT22;3522;50.856;7.278;2023-04-29T11:16:35;11.00;99.90
6964;DHT22;3522;50.856;7.278;2023-04-29T11:19:03;10.90;99.90
6964;DHT22;3522;50.856;7.278;2023-04-29T11:21:30;10.80;99.90
6964;DHT22;3522;50.856;7.278;2023-04-29T11:23:59;10.70;99.90
6964;DHT22;3522;50.856;7.278;2023-04-29T11:26:26;10.70;99.90
6964;DHT22;3522;50.856;7.278;2023-04-29T11:28:52;10.70;99.90
6964;DHT22;3522;50.856;7.278;2023-04-29T11:31:19;10.60;99.90
6964;DHT22;3522;50.856;7.278;2023-04-29T11:33:48;10.60;99.90
6964;DHT22;3522;50.856;7.278;2023-04-29T11:36:14;10.60;99.90
6964;DHT22;3522;50.856;7.278;2023-04-29T11:38:41;10.50;99.90
6964;DHT22;3522;50.856;7.278;2023-04-29T11:41:09;10.50;99.90
6964;DHT22;3522;50.856;7.278;2023-04-29T11:43:36;10.50;99.90
6964;DHT22;3522;50.856;7.278;2023-04-29T11:46:10;10.50;99.90
6964;DHT22;3522;50.856;7.278;2023-04-29T11:48:36;10.50;99.90
6964;DHT22;3522;50.856;7.278;2023-04-29T11:51:04;10.50;99.90
6964;DHT22;3522;50.856;7.278;2023-04-29T11:53:31;10.50;99.90
6964;DHT22;3522;50.856;7.278;2023-04-29T11:55:58;10.50;99.90
6964;DHT22;3522;50.856;7.278;2023-04-29T11:58:25;10.50;99.90
6964;DHT22;3522;50.856;7.278;2023-04-29T12:00:51;10.50;99.90
6964;DHT22;3522;50.856;7.278;2023-04-29T12:03:18;10.50;99.90
6964;DHT22;3522;50.856;7.278;2023-04-29T12:05:46;10.50;99.90
6964;DHT22;3522;50.856;7.278;2023-04-29T12:08:14;10.50;99.90
6964;DHT22;3522;50.856;7.278;2023-04-29T12:10:44;10.50;99.90
6964;DHT22;3522;50.856;7.278;2023-04-29T12:13:12;10.50;99.90
6964;DHT22;3522;50.856;7.278;2023-04-29T12:15:38;10.40;99.90
6964;DHT22;3522;50.856;7.278;2023-04-29T12:18:05;10.40;99.90
6964;DHT22;3522;50.856;7.278;2023-04-29T12:20:32;10.50;99.90
6964;DHT22;3522;50.856;7.278;2023-04-29T12:23:09;10.40;99.90
6964;DHT22;3522;50.856;7.278;2023-04-29T12:25:37;10.40;99.90
6964;DHT22;3522;50.856;7.278;2023-04-29T12:28:05;10.40;99.90
6964;DHT22;3522;50.856;7.278;2023-04-29T12:30:36;10.40;99.90
6964;DHT22;3522;50.856;7.278;2023-04-29T12:33:03;10.40;99.90
6964;DHT22;3522;50.856;7.278;2023-04-29T12:35:30;10.40;99.90
6964;DHT22;3522;50.856;7.278;2023-04-29T12:37:57;10.50;99.90
6964;DHT22;3522;50.856;7.278;2023-04-29T12:40:24;10.50;99.90
6964;DHT22;3522;50.856;7.278;2023-04-29T12:42:53;10.50;99.90
6964;DHT22;3522;50.856;7.278;2023-04-29T12:45:26;10.50;99.90
6964;DHT22;3522;50.856;7.278;2023-04-29T12:47:54;10.50;99.90
6964;DHT22;3522;50.856;7.278;2023-04-29T12:50:26;10.50;99.90
6964;DHT22;3522;50.856;7.278;2023-04-29T12:52:53;10.60;99.90
6964;DHT22;3522;50.856;7.278;2023-04-29T12:55:20;10.70;99.90
6964;DHT22;3522;50.856;7.278;2023-04-29T12:57:47;10.70;99.90
6964;DHT22;3522;50.856;7.278;2023-04-29T13:00:15;10.70;99.90
6964;DHT22;3522;50.856;7.278;2023-04-29T13:02:42;10.80;99.90
6964;DHT22;3522;50.856;7.278;2023-04-29T13:05:09;10.80;99.90
6964;DHT22;3522;50.856;7.278;2023-04-29T13:07:37;10.90;99.90
6964;DHT22;3522;50.856;7.278;2023-04-29T13:10:03;10.90;99.90
6964;DHT22;3522;50.856;7.278;2023-04-29T13:12:31;11.00;99.90
6964;DHT22;3522;50.856;7.278;2023-04-29T13:14:58;11.10;99.90
6964;DHT22;3522;50.856;7.278;2023-04-29T13:17:26;11.20;99.90
6964;DHT22;3522;50.856;7.278;2023-04-29T13:19:52;11.30;99.90
6964;DHT22;3522;50.856;7.278;2023-04-29T13:22:19;11.50;99.90
6964;DHT22;3522;50.856;7.278;2023-04-29T13:24:46;11.80;99.90
6964;DHT22;3522;50.856;7.278;2023-04-29T13:27:12;12.00;99.90
6964;DHT22;3522;50.856;7.278;2023-04-29T13:29:39;12.30;99.90
6964;DHT22;3522;50.856;7.278;2023-04-29T13:32:05;12.60;99.90
6964;DHT22;3522;50.856;7.278;2023-04-29T13:34:33;12.80;99.90
6964;DHT22;3522;50.856;7.278;2023-04-29T13:37:00;13.00;99.90
6964;DHT22;3522;50.856;7.278;2023-04-29T13:39:26;13.10;99.90
6964;DHT22;3522;50.856;7.278;2023-04-29T13:41:53;13.30;99.90
6964;DHT22;3522;50.856;7.278;2023-04-29T13:44:20;13.30;99.90
6964;DHT22;3522;50.856;7.278;2023-04-29T13:46:46;13.40;99.90
6964;DHT22;3522;50.856;7.278;2023-04-29T13:49:13;13.50;99.90
6964;DHT22;3522;50.856;7.278;2023-04-29T13:51:41;13.60;99.90
6964;DHT22;3522;50.856;7.278;2023-04-29T13:54:08;13.60;99.90
6964;DHT22;3522;50.856;7.278;2023-04-29T13:56:34;13.60;99.90
6964;DHT22;3522;50.856;7.278;2023-04-29T13:59:01;13.70;99.90
6964;DHT22;3522;50.856;7.278;2023-04-29T14:01:27;13.60;99.90
6964;DHT22;3522;50.856;7.278;2023-04-29T14:03:54;13.60;99.90
6964;DHT22;3522;50.856;7.278;2023-04-29T14:06:20;13.70;99.90
6964;DHT22;3522;50.856;7.278;2023-04-29T14:08:48;13.60;99.90
6964;DHT22;3522;50.856;7.278;2023-04-29T14:11:15;13.70;99.90
6964;DHT22;3522;50.856;7.278;2023-04-29T14:13:41;13.70;99.90
6964;DHT22;3522;50.856;7.278;2023-04-29T14:16:08;13.70;99.90
6964;DHT22;3522;50.856;7.278;2023-04-29T14:18:36;13.70;99.90
6964;DHT22;3522;50.856;7.278;2023-04-29T14:21:03;13.70;99.90
6964;DHT22;3522;50.856;7.278;2023-04-29T14:23:29;13.70;99.90
6964;DHT22;3522;50.856;7.278;2023-04-29T14:25:57;13.70;99.90
6964;DHT22;3522;50.856;7.278;2023-04-29T14:28:24;13.80;99.90
6964;DHT22;3522;50.856;7.278;2023-04-29T14:30:50;13.70;99.90
6964;DHT22;3522;50.856;7.278;2023-04-29T14:33:17;13.60;99.90
6964;DHT22;3522;50.856;7.278;2023-04-29T14:35:43;13.60;99.90
6964;DHT22;3522;50.856;7.278;2023-04-29T14:38:10;13.60;99.90
6964;DHT22;3522;50.856;7.278;2023-04-29T14:40:37;13.50;99.90
6964;DHT22;3522;50.856;7.278;2023-04-29T14:43:06;13.40;99.90
6964;DHT22;3522;50.856;7.278;2023-04-29T14:45:32;13.20;99.90
6964;DHT22;3522;50.856;7.278;2023-04-29T14:47:59;13.00;99.90
6964;DHT22;3522;50.856;7.278;2023-04-29T14:50:25;12.90;99.90
6964;DHT22;3522;50.856;7.278;2023-04-29T14:52:52;12.80;99.90
6964;DHT22;3522;50.856;7.278;2023-04-29T14:55:18;12.80;99.90
6964;DHT22;3522;50.856;7.278;2023-04-29T14:57:45;12.70;99.90
6964;DHT22;3522;50.856;7.278;2023-04-29T15:00:14;12.60;99.90
6964;DHT22;3522;50.856;7.278;2023-04-29T15:02:40;12.60;99.90
6964;DHT22;3522;50.856;7.278;2023-04-29T15:05:07;12.60;99.90
6964;DHT22;3522;50.856;7.278;2023-04-29T15:07:34;12.50;99.90
6964;DHT22;3522;50.856;7.278;2023-04-29T15:10:00;12.50;99.90
6964;DHT22;3522;50.856;7.278;2023-04-29T15:12:27;12.40;99.90
6964;DHT22;3522;50.856;7.278;2023-04-29T15:14:54;12.40;99.90
6964;DHT22;3522;50.856;7.278;2023-04-29T15:17:22;12.40;99.90
6964;DHT22;3522;50.856;7.278;2023-04-29T15:19:49;12.30;99.90
6964;DHT22;3522;50.856;7.278;2023-04-29T15:22:16;12.50;99.90
6964;DHT22;3522;50.856;7.278;2023-04-29T15:24:43;12.30;99.90
6964;DHT22;3522;50.856;7.278;2023-04-29T15:27:09;12.30;99.90
6964;DHT22;3522;50.856;7.278;2023-04-29T15:29:36;12.30;99.90
6964;DHT22;3522;50.856;7.278;2023-04-29T15:32:03;12.30;99.90
6964;DHT22;3522;50.856;7.278;2023-04-29T15:34:31;12.30;99.90
6964;DHT22;3522;50.856;7.278;2023-04-29T15:36:57;12.40;99.90
6964;DHT22;3522;50.856;7.278;2023-04-29T15:39:24;12.40;99.90
6964;DHT22;3522;50.856;7.278;2023-04-29T15:41:50;12.40;99.90
6964;DHT22;3522;50.856;7.278;2023-04-29T15:44:18;12.40;99.90
6964;DHT22;3522;50.856;7.278;2023-04-29T15:46:44;12.50;99.90
6964;DHT22;3522;50.856;7.278;2023-04-29T15:49:12;12.50;99.90
6964;DHT22;3522;50.856;7.278;2023-04-29T15:51:40;12.50;99.90
6964;DHT22;3522;50.856;7.278;2023-04-29T15:54:06;12.50;99.90
6964;DHT22;3522;50.856;7.278;2023-04-29T15:56:34;12.50;99.90
6964;DHT22;3522;50.856;7.278;2023-04-29T15:59:00;12.50;99.90
6964;DHT22;3522;50.856;7.278;2023-04-29T16:01:27;12.40;99.90
6964;DHT22;3522;50.856;7.278;2023-04-29T16:03:55;12.60;99.90
6964;DHT22;3522;50.856;7.278;2023-04-29T16:06:21;12.50;99.90
6964;DHT22;3522;50.856;7.278;2023-04-29T16:08:49;12.60;99.90
6964;DHT22;3522;50.856;7.278;2023-04-29T16:11:16;12.70;99.90